sensor_id;sensor_type;location;lat;lon;timestamp;temperature;humidity
22224;DHT22;11281;52.194;21.006;2023-10-13T00:01:42;6.80;99.90
22224;DHT22;11281;52.194;21.006;2023-10-13T00:05:44;6.70;99.90
22224;DHT22;11281;52.194;21.006;2023-10-13T00:09:46;6.70;99.90
22224;DHT22;11281;52.194;21.006;2023-10-13T00:13:47;6.70;99.90
22224;DHT22;11281;52.194;21.006;2023-10-13T00:17:52;6.80;99.90
22224;DHT22;11281;52.194;21.006;2023-10-13T00:21:54;6.80;99.90
22224;DHT22;11281;52.194;21.006;2023-10-13T00:25:58;6.70;99.90
22224;DHT22;11281;52.194;21.006;2023-10-13T00:30:05;6.60;99.90
22224;DHT22;11281;52.194;21.006;2023-10-13T00:34:34;6.60;99.90
22224;DHT22;11281;52.194;21.006;2023-10-13T00:38:38;6.60;99.90
22224;DHT22;11281;52.194;21.006;2023-10-13T00:42:40;6.50;99.90
22224;DHT22;11281;52.194;21.006;2023-10-13T00:46:53;6.50;99.90
22224;DHT22;11281;52.194;21.006;2023-10-13T00:50:59;6.50;99.90
22224;DHT22;11281;52.194;21.006;2023-10-13T00:55:10;6.40;99.90
22224;DHT22;11281;52.194;21.006;2023-10-13T00:59:14;6.30;99.90
22224;DHT22;11281;52.194;21.006;2023-10-13T01:03:16;6.40;99.90
22224;DHT22;11281;52.194;21.006;2023-10-13T01:07:26;6.40;99.90
22224;DHT22;11281;52.194;21.006;2023-10-13T01:11:29;6.40;99.90
22224;DHT22;11281;52.194;21.006;2023-10-13T01:15:31;6.40;99.90
22224;DHT22;11281;52.194;21.006;2023-10-13T01:19:37;6.50;99.90
22224;DHT22;11281;52.194;21.006;2023-10-13T01:23:44;6.40;99.90
22224;DHT22;11281;52.194;21.006;2023-10-13T01:27:47;6.40;99.90
22224;DHT22;11281;52.194;21.006;2023-10-13T01:31:50;6.40;99.90
22224;DHT22;11281;52.194;21.006;2023-10-13T01:35:52;6.50;99.90
22224;DHT22;11281;52.194;21.006;2023-10-13T01:39:54;6.60;99.90
22224;DHT22;11281;52.194;21.006;2023-10-13T01:43:55;6.60;99.90
22224;DHT22;11281;52.194;21.006;2023-10-13T01:47:59;6.70;99.90
22224;DHT22;11281;52.194;21.006;2023-10-13T01:52:03;6.70;99.90
22224;DHT22;11281;52.194;21.006;2023-10-13T01:56:05;6.60;99.90
22224;DHT22;11281;52.194;21.006;2023-10-13T02:00:11;6.60;99.90
22224;DHT22;11281;52.194;21.006;2023-10-13T02:04:20;6.60;99.90
22224;DHT22;11281;52.194;21.006;2023-10-13T02:08:22;6.60;99.90
22224;DHT22;11281;52.194;21.006;2023-10-13T02:12:24;6.70;99.90
22224;DHT22;11281;52.194;21.006;2023-10-13T02:16:38;6.70;99.90
22224;DHT22;11281;52.194;21.006;2023-10-13T02:20:40;6.70;99.90
22224;DHT22;11281;52.194;21.006;2023-10-13T02:24:47;6.70;99.90
22224;DHT22;11281;52.194;21.006;2023-10-13T02:28:53;6.60;99.90
22224;DHT22;11281;52.194;21.006;2023-10-13T02:32:58;6.50;99.90
22224;DHT22;11281;52.194;21.006;2023-10-13T02:37:06;6.60;99.90
22224;DHT22;11281;52.194;21.006;2023-10-13T02:41:15;6.50;99.90
22224;DHT22;11281;52.194;21.006;2023-10-13T02:45:38;6.50;99.90
22224;DHT22;11281;52.194;21.006;2023-10-13T02:49:41;6.50;99.90
22224;DHT22;11281;52.194;21.006;2023-10-13T02:53:47;6.50;99.90
22224;DHT22;11281;52.194;21.006;2023-10-13T02:57:53;6.50;99.90
22224;DHT22;11281;52.194;21.006;2023-10-13T03:01:57;6.50;99.90
22224;DHT22;11281;52.194;21.006;2023-10-13T03:05:59;6.50;99.90
22224;DHT22;11281;52.194;21.006;2023-10-13T03:10:03;6.40;99.90
22224;DHT22;11281;52.194;21.006;2023-10-13T03:14:11;6.40;99.90
22224;DHT22;11281;52.194;21.006;2023-10-13T03:18:25;6.30;99.90
22224;DHT22;11281;52.194;21.006;2023-10-13T03:22:27;6.10;99.90
22224;DHT22;11281;52.194;21.006;2023-10-13T03:26:33;6.20;99.90
22224;DHT22;11281;52.194;21.006;2023-10-13T03:30:45;6.20;99.90
22224;DHT22;11281;52.194;21.006;2023-10-13T03:34:48;6.20;99.90
22224;DHT22;11281;52.194;21.006;2023-10-13T03:39:01;6.10;99.90
22224;DHT22;11281;52.194;21.006;2023-10-13T03:43:08;6.10;99.90
22224;DHT22;11281;52.194;21.006;2023-10-13T03:47:13;6.10;99.90
22224;DHT22;11281;52.194;21.006;2023-10-13T03:51:27;6.00;99.90
22224;DHT22;11281;52.194;21.006;2023-10-13T03:55:34;6.00;99.90
22224;DHT22;11281;52.194;21.006;2023-10-13T03:59:36;5.90;99.90
22224;DHT22;11281;52.194;21.006;2023-10-13T04:03:39;5.90;99.90
22224;DHT22;11281;52.194;21.006;2023-10-13T04:08:02;5.90;99.90
22224;DHT22;11281;52.194;21.006;2023-10-13T04:12:25;5.80;99.90
22224;DHT22;11281;52.194;21.006;2023-10-13T04:16:45;5.90;99.90
22224;DHT22;11281;52.194;21.006;2023-10-13T04:20:54;5.90;99.90
22224;DHT22;11281;52.194;21.006;2023-10-13T04:25:23;5.90;99.90
22224;DHT22;11281;52.194;21.006;2023-10-13T04:29:44;5.90;99.90
22224;DHT22;11281;52.194;21.006;2023-10-13T04:34:11;6.00;99.90
22224;DHT22;11281;52.194;21.006;2023-10-13T04:38:20;6.10;99.90
22224;DHT22;11281;52.194;21.006;2023-10-13T04:42:34;6.10;99.90
22224;DHT22;11281;52.194;21.006;2023-10-13T04:46:59;6.20;99.90
22224;DHT22;11281;52.194;21.006;2023-10-13T04:51:01;6.20;99.90
22224;DHT22;11281;52.194;21.006;2023-10-13T04:55:21;6.30;99.90
22224;DHT22;11281;52.194;21.006;2023-10-13T04:59:41;6.40;99.90
22224;DHT22;11281;52.194;21.006;2023-10-13T05:04:01;6.50;99.90
22224;DHT22;11281;52.194;21.006;2023-10-13T05:08:21;6.40;99.90
22224;DHT22;11281;52.194;21.006;2023-10-13T05:12:42;6.40;99.90
22224;DHT22;11281;52.194;21.006;2023-10-13T05:17:03;6.40;99.90
22224;DHT22;11281;52.194;21.006;2023-10-13T05:21:23;6.50;99.90
22224;DHT22;11281;52.194;21.006;2023-10-13T05:25:44;6.50;99.90
22224;DHT22;11281;52.194;21.006;2023-10-13T05:30:05;6.40;99.90
22224;DHT22;11281;52.194;21.006;2023-10-13T05:34:26;6.40;99.90
22224;DHT22;11281;52.194;21.006;2023-10-13T05:38:46;6.30;99.90
22224;DHT22;11281;52.194;21.006;2023-10-13T05:43:06;6.20;99.90
22224;DHT22;11281;52.194;21.006;2023-10-13T05:47:25;6.30;99.90
22224;DHT22;11281;52.194;21.006;2023-10-13T05:51:39;6.50;99.90
22224;DHT22;11281;52.194;21.006;2023-10-13T05:56:07;6.50;99.90
22224;DHT22;11281;52.194;21.006;2023-10-13T06:00:28;6.40;99.90
22224;DHT22;11281;52.194;21.006;2023-10-13T06:04:47;6.50;99.90
22224;DHT22;11281;52.194;21.006;2023-10-13T06:09:08;6.60;99.90
22224;DHT22;11281;52.194;21.006;2023-10-13T06:13:28;6.70;99.90
22224;DHT22;11281;52.194;21.006;2023-10-13T06:17:49;6.80;99.90
22224;DHT22;11281;52.194;21.006;2023-10-13T06:22:09;7.10;99.90
22224;DHT22;11281;52.194;21.006;2023-10-13T06:26:29;7.40;99.90
22224;DHT22;11281;52.194;21.006;2023-10-13T06:30:59;7.50;99.90
22224;DHT22;11281;52.194;21.006;2023-10-13T06:35:04;7.70;99.90
22224;DHT22;11281;52.194;21.006;2023-10-13T06:39:15;7.70;99.90
22224;DHT22;11281;52.194;21.006;2023-10-13T06:43:37;7.80;99.90
22224;DHT22;11281;52.194;21.006;2023-10-13T06:47:41;8.10;99.90
22224;DHT22;11281;52.194;21.006;2023-10-13T06:51:46;8.30;99.90
22224;DHT22;11281;52.194;21.006;2023-10-13T06:55:48;8.60;99.90
22224;DHT22;11281;52.194;21.006;2023-10-13T06:59:54;8.80;99.90
22224;DHT22;11281;52.194;21.006;2023-10-13T07:03:56;9.00;99.90
22224;DHT22;11281;52.194;21.006;2023-10-13T07:08:02;9.00;99.90
22224;DHT22;11281;52.194;21.006;2023-10-13T07:12:06;9.00;99.90
22224;DHT22;11281;52.194;21.006;2023-10-13T07:16:17;9.00;99.90
22224;DHT22;11281;52.194;21.006;2023-10-13T07:20:19;9.10;99.90
22224;DHT22;11281;52.194;21.006;2023-10-13T07:24:45;9.10;99.90
22224;DHT22;11281;52.194;21.006;2023-10-13T07:28:49;9.20;99.90
22224;DHT22;11281;52.194;21.006;2023-10-13T07:32:54;9.20;99.90
22224;DHT22;11281;52.194;21.006;2023-10-13T07:37:00;9.30;99.90
22224;DHT22;11281;52.194;21.006;2023-10-13T07:41:02;9.40;99.90
22224;DHT22;11281;52.194;21.006;2023-10-13T07:45:10;9.50;99.90
22224;DHT22;11281;52.194;21.006;2023-10-13T07:49:14;9.70;99.90
22224;DHT22;11281;52.194;21.006;2023-10-13T07:53:16;9.80;99.90
22224;DHT22;11281;52.194;21.006;2023-10-13T07:57:24;10.00;99.90
22224;DHT22;11281;52.194;21.006;2023-10-13T08:01:31;10.20;99.90
22224;DHT22;11281;52.194;21.006;2023-10-13T08:05:34;10.30;99.90
22224;DHT22;11281;52.194;21.006;2023-10-13T08:09:56;10.70;99.90
22224;DHT22;11281;52.194;21.006;2023-10-13T08:14:02;11.10;99.90
22224;DHT22;11281;52.194;21.006;2023-10-13T08:18:14;11.40;99.90
22224;DHT22;11281;52.194;21.006;2023-10-13T08:22:31;11.70;99.90
22224;DHT22;11281;52.194;21.006;2023-10-13T08:26:38;12.00;99.90
22224;DHT22;11281;52.194;21.006;2023-10-13T08:31:04;12.10;99.90
22224;DHT22;11281;52.194;21.006;2023-10-13T08:35:23;12.30;99.90
22224;DHT22;11281;52.194;21.006;2023-10-13T08:39:32;12.60;99.90
22224;DHT22;11281;52.194;21.006;2023-10-13T08:44:03;12.60;99.90
22224;DHT22;11281;52.194;21.006;2023-10-13T08:48:07;12.70;99.90
22224;DHT22;11281;52.194;21.006;2023-10-13T08:52:14;12.80;99.90
22224;DHT22;11281;52.194;21.006;2023-10-13T08:56:47;12.90;99.90
22224;DHT22;11281;52.194;21.006;2023-10-13T09:00:58;13.10;99.90
22224;DHT22;11281;52.194;21.006;2023-10-13T09:05:13;13.00;99.90
22224;DHT22;11281;52.194;21.006;2023-10-13T09:13:47;13.10;99.90
22224;DHT22;11281;52.194;21.006;2023-10-13T09:17:50;13.30;99.90
22224;DHT22;11281;52.194;21.006;2023-10-13T09:21:52;13.60;99.90
22224;DHT22;11281;52.194;21.006;2023-10-13T09:26:05;13.60;99.90
22224;DHT22;11281;52.194;21.006;2023-10-13T09:30:13;13.40;99.90
22224;DHT22;11281;52.194;21.006;2023-10-13T09:34:24;13.50;99.90
22224;DHT22;11281;52.194;21.006;2023-10-13T09:38:35;13.70;99.90
22224;DHT22;11281;52.194;21.006;2023-10-13T09:42:38;13.70;99.90
22224;DHT22;11281;52.194;21.006;2023-10-13T09:46:40;13.70;99.90
22224;DHT22;11281;52.194;21.006;2023-10-13T09:50:45;13.80;99.90
22224;DHT22;11281;52.194;21.006;2023-10-13T09:55:15;14.10;99.90
22224;DHT22;11281;52.194;21.006;2023-10-13T09:59:55;14.20;99.90
22224;DHT22;11281;52.194;21.006;2023-10-13T10:04:10;14.10;99.90
22224;DHT22;11281;52.194;21.006;2023-10-13T10:08:24;14.10;99.90
22224;DHT22;11281;52.194;21.006;2023-10-13T10:13:05;14.30;99.90
22224;DHT22;11281;52.194;21.006;2023-10-13T10:17:20;14.20;99.90
22224;DHT22;11281;52.194;21.006;2023-10-13T10:21:33;14.40;99.90
22224;DHT22;11281;52.194;21.006;2023-10-13T10:25:36;14.30;99.90
22224;DHT22;11281;52.194;21.006;2023-10-13T10:29:55;14.40;99.90
22224;DHT22;11281;52.194;21.006;2023-10-13T10:33:57;14.60;99.90
22224;DHT22;11281;52.194;21.006;2023-10-13T10:38:17;15.00;99.90
22224;DHT22;11281;52.194;21.006;2023-10-13T10:42:18;14.80;99.90
22224;DHT22;11281;52.194;21.006;2023-10-13T10:46:28;14.90;99.90
22224;DHT22;11281;52.194;21.006;2023-10-13T10:50:39;14.90;99.90
22224;DHT22;11281;52.194;21.006;2023-10-13T10:54:41;14.90;99.90
22224;DHT22;11281;52.194;21.006;2023-10-13T10:58:48;15.00;99.90
22224;DHT22;11281;52.194;21.006;2023-10-13T11:02:56;15.10;99.90
22224;DHT22;11281;52.194;21.006;2023-10-13T11:06:59;15.20;99.90
22224;DHT22;11281;52.194;21.006;2023-10-13T11:11:01;15.30;99.90
22224;DHT22;11281;52.194;21.006;2023-10-13T11:15:07;15.30;99.90
22224;DHT22;11281;52.194;21.006;2023-10-13T11:19:38;15.00;99.90
22224;DHT22;11281;52.194;21.006;2023-10-13T11:24:05;14.80;99.90
22224;DHT22;11281;52.194;21.006;2023-10-13T11:28:16;15.10;99.90
22224;DHT22;11281;52.194;21.006;2023-10-13T11:32:19;15.30;99.90
22224;DHT22;11281;52.194;21.006;2023-10-13T11:36:23;15.50;99.90
22224;DHT22;11281;52.194;21.006;2023-10-13T11:40:30;15.70;99.90
22224;DHT22;11281;52.194;21.006;2023-10-13T11:44:50;15.80;99.90
22224;DHT22;11281;52.194;21.006;2023-10-13T11:49:11;15.80;99.90
22224;DHT22;11281;52.194;21.006;2023-10-13T11:53:16;15.90;99.90
22224;DHT22;11281;52.194;21.006;2023-10-13T11:57:19;15.90;99.90
22224;DHT22;11281;52.194;21.006;2023-10-13T12:01:21;15.90;99.90
22224;DHT22;11281;52.194;21.006;2023-10-13T12:05:43;16.20;99.90
22224;DHT22;11281;52.194;21.006;2023-10-13T12:10:04;16.50;99.90
22224;DHT22;11281;52.194;21.006;2023-10-13T12:14:08;16.40;99.90
22224;DHT22;11281;52.194;21.006;2023-10-13T12:18:33;16.50;99.90
22224;DHT22;11281;52.194;21.006;2023-10-13T12:22:37;16.70;99.90
22224;DHT22;11281;52.194;21.006;2023-10-13T12:26:43;16.60;99.90
22224;DHT22;11281;52.194;21.006;2023-10-13T12:30:45;16.70;99.90
22224;DHT22;11281;52.194;21.006;2023-10-13T12:34:50;16.90;99.90
22224;DHT22;11281;52.194;21.006;2023-10-13T12:39:00;17.00;99.90
22224;DHT22;11281;52.194;21.006;2023-10-13T12:43:10;17.10;99.90
22224;DHT22;11281;52.194;21.006;2023-10-13T12:47:29;17.20;99.90
22224;DHT22;11281;52.194;21.006;2023-10-13T12:51:50;17.30;99.90
22224;DHT22;11281;52.194;21.006;2023-10-13T12:55:53;17.40;99.90
22224;DHT22;11281;52.194;21.006;2023-10-13T12:59:55;17.50;99.90
22224;DHT22;11281;52.194;21.006;2023-10-13T13:03:57;17.50;99.90
22224;DHT22;11281;52.194;21.006;2023-10-13T13:07:59;17.30;99.90
22224;DHT22;11281;52.194;21.006;2023-10-13T13:12:00;17.30;99.90
22224;DHT22;11281;52.194;21.006;2023-10-13T13:16:03;17.20;99.90
22224;DHT22;11281;52.194;21.006;2023-10-13T13:20:06;17.10;99.90
22224;DHT22;11281;52.194;21.006;2023-10-13T13:24:27;17.20;99.90
22224;DHT22;11281;52.194;21.006;2023-10-13T13:28:31;17.10;99.90
22224;DHT22;11281;52.194;21.006;2023-10-13T13:32:39;16.90;99.90
22224;DHT22;11281;52.194;21.006;2023-10-13T13:36:42;16.80;99.90
22224;DHT22;11281;52.194;21.006;2023-10-13T13:40:46;16.80;99.90
22224;DHT22;11281;52.194;21.006;2023-10-13T13:44:50;16.80;99.90
22224;DHT22;11281;52.194;21.006;2023-10-13T13:48:52;16.80;99.90
22224;DHT22;11281;52.194;21.006;2023-10-13T13:53:00;16.90;99.90
22224;DHT22;11281;52.194;21.006;2023-10-13T13:57:02;16.80;99.90
22224;DHT22;11281;52.194;21.006;2023-10-13T14:01:04;16.70;99.90
22224;DHT22;11281;52.194;21.006;2023-10-13T14:05:14;16.60;99.90
22224;DHT22;11281;52.194;21.006;2023-10-13T14:09:17;16.50;99.90
22224;DHT22;11281;52.194;21.006;2023-10-13T14:13:42;16.40;99.90
22224;DHT22;11281;52.194;21.006;2023-10-13T14:17:50;16.30;99.90
22224;DHT22;11281;52.194;21.006;2023-10-13T14:21:52;16.30;99.90
22224;DHT22;11281;52.194;21.006;2023-10-13T14:25:57;16.30;99.90
22224;DHT22;11281;52.194;21.006;2023-10-13T14:30:00;16.30;99.90
22224;DHT22;11281;52.194;21.006;2023-10-13T14:34:01;16.30;99.90
22224;DHT22;11281;52.194;21.006;2023-10-13T14:38:04;16.20;99.90
22224;DHT22;11281;52.194;21.006;2023-10-13T14:42:05;16.10;99.90
22224;DHT22;11281;52.194;21.006;2023-10-13T14:46:10;16.10;99.90
22224;DHT22;11281;52.194;21.006;2023-10-13T14:50:13;16.00;99.90
22224;DHT22;11281;52.194;21.006;2023-10-13T14:54:23;15.90;99.90
22224;DHT22;11281;52.194;21.006;2023-10-13T14:58:33;16.00;99.90
22224;DHT22;11281;52.194;21.006;2023-10-13T15:02:35;15.90;99.90
22224;DHT22;11281;52.194;21.006;2023-10-13T15:06:37;15.90;99.90
22224;DHT22;11281;52.194;21.006;2023-10-13T15:10:39;15.90;99.90
22224;DHT22;11281;52.194;21.006;2023-10-13T15:14:41;15.90;99.90
22224;DHT22;11281;52.194;21.006;2023-10-13T15:18:47;15.80;99.90
22224;DHT22;11281;52.194;21.006;2023-10-13T15:22:52;15.80;99.90
22224;DHT22;11281;52.194;21.006;2023-10-13T15:27:01;15.70;99.90
22224;DHT22;11281;52.194;21.006;2023-10-13T15:31:11;15.60;99.90
22224;DHT22;11281;52.194;21.006;2023-10-13T15:35:24;15.60;99.90
22224;DHT22;11281;52.194;21.006;2023-10-13T15:39:29;15.50;99.90
22224;DHT22;11281;52.194;21.006;2023-10-13T15:43:33;15.40;99.90
22224;DHT22;11281;52.194;21.006;2023-10-13T15:47:35;15.40;99.90
22224;DHT22;11281;52.194;21.006;2023-10-13T15:51:37;15.40;99.90
22224;DHT22;11281;52.194;21.006;2023-10-13T15:55:39;15.40;99.90
22224;DHT22;11281;52.194;21.006;2023-10-13T15:59:41;15.30;99.90
22224;DHT22;11281;52.194;21.006;2023-10-13T16:03:47;15.30;99.90
22224;DHT22;11281;52.194;21.006;2023-10-13T16:07:52;15.30;99.90
22224;DHT22;11281;52.194;21.006;2023-10-13T16:12:01;15.30;99.90
22224;DHT22;11281;52.194;21.006;2023-10-13T16:16:03;15.30;99.90
22224;DHT22;11281;52.194;21.006;2023-10-13T16:20:07;15.30;99.90
22224;DHT22;11281;52.194;21.006;2023-10-13T16:24:19;15.40;99.90
22224;DHT22;11281;52.194;21.006;2023-10-13T16:28:21;15.40;99.90
22224;DHT22;11281;52.194;21.006;2023-10-13T16:32:23;15.30;99.90
22224;DHT22;11281;52.194;21.006;2023-10-13T16:36:28;15.30;99.90
22224;DHT22;11281;52.194;21.006;2023-10-13T16:40:32;15.30;99.90
22224;DHT22;11281;52.194;21.006;2023-10-13T16:44:34;15.20;99.90
22224;DHT22;11281;52.194;21.006;2023-10-13T16:48:39;15.20;99.90
22224;DHT22;11281;52.194;21.006;2023-10-13T16:52:44;15.20;99.90
22224;DHT22;11281;52.194;21.006;2023-10-13T16:56:49;15.10;99.90
22224;DHT22;11281;52.194;21.006;2023-10-13T17:00:53;15.30;99.90
22224;DHT22;11281;52.194;21.006;2023-10-13T17:04:55;15.30;99.90
22224;DHT22;11281;52.194;21.006;2023-10-13T17:08:58;15.40;99.90
22224;DHT22;11281;52.194;21.006;2023-10-13T17:13:00;15.50;99.90
22224;DHT22;11281;52.194;21.006;2023-10-13T17:17:05;15.50;99.90
22224;DHT22;11281;52.194;21.006;2023-10-13T17:21:14;15.40;99.90
22224;DHT22;11281;52.194;21.006;2023-10-13T17:25:18;15.30;99.90
22224;DHT22;11281;52.194;21.006;2023-10-13T17:29:20;15.10;99.90
22224;DHT22;11281;52.194;21.006;2023-10-13T17:33:25;15.00;99.90
22224;DHT22;11281;52.194;21.006;2023-10-13T17:37:30;14.90;99.90
22224;DHT22;11281;52.194;21.006;2023-10-13T17:41:33;14.70;99.90
22224;DHT22;11281;52.194;21.006;2023-10-13T17:45:35;14.60;99.90
22224;DHT22;11281;52.194;21.006;2023-10-13T17:49:37;14.50;99.90
22224;DHT22;11281;52.194;21.006;2023-10-13T17:53:40;14.40;99.90
22224;DHT22;11281;52.194;21.006;2023-10-13T17:57:42;14.40;99.90
22224;DHT22;11281;52.194;21.006;2023-10-13T18:01:43;14.30;99.90
22224;DHT22;11281;52.194;21.006;2023-10-13T18:05:58;14.30;99.90
22224;DHT22;11281;52.194;21.006;2023-10-13T18:10:00;14.30;99.90
22224;DHT22;11281;52.194;21.006;2023-10-13T18:14:02;14.30;99.90
22224;DHT22;11281;52.194;21.006;2023-10-13T18:18:05;14.30;99.90
22224;DHT22;11281;52.194;21.006;2023-10-13T18:22:09;14.30;99.90
22224;DHT22;11281;52.194;21.006;2023-10-13T18:26:17;14.50;99.90
22224;DHT22;11281;52.194;21.006;2023-10-13T18:30:21;14.30;99.90
22224;DHT22;11281;52.194;21.006;2023-10-13T18:34:23;14.30;99.90
22224;DHT22;11281;52.194;21.006;2023-10-13T18:38:24;14.20;99.90
22224;DHT22;11281;52.194;21.006;2023-10-13T18:42:31;14.30;99.90
22224;DHT22;11281;52.194;21.006;2023-10-13T18:46:43;14.20;99.90
22224;DHT22;11281;52.194;21.006;2023-10-13T18:50:45;14.20;99.90
22224;DHT22;11281;52.194;21.006;2023-10-13T18:54:46;14.20;99.90
22224;DHT22;11281;52.194;21.006;2023-10-13T18:58:50;14.20;99.90
22224;DHT22;11281;52.194;21.006;2023-10-13T19:02:56;14.20;99.90
22224;DHT22;11281;52.194;21.006;2023-10-13T19:06:57;14.30;99.90
22224;DHT22;11281;52.194;21.006;2023-10-13T19:11:03;14.60;99.90
22224;DHT22;11281;52.194;21.006;2023-10-13T19:15:09;14.80;99.90
22224;DHT22;11281;52.194;21.006;2023-10-13T19:19:14;14.90;99.90
22224;DHT22;11281;52.194;21.006;2023-10-13T19:23:16;14.90;99.90
22224;DHT22;11281;52.194;21.006;2023-10-13T19:27:18;15.10;99.90
22224;DHT22;11281;52.194;21.006;2023-10-13T19:31:27;15.40;99.90
22224;DHT22;11281;52.194;21.006;2023-10-13T19:35:30;15.50;99.90
22224;DHT22;11281;52.194;21.006;2023-10-13T19:39:32;15.50;99.90
22224;DHT22;11281;52.194;21.006;2023-10-13T19:43:41;15.40;99.90
22224;DHT22;11281;52.194;21.006;2023-10-13T19:47:46;15.40;99.90
22224;DHT22;11281;52.194;21.006;2023-10-13T19:51:47;15.20;99.90
22224;DHT22;11281;52.194;21.006;2023-10-13T19:55:49;15.10;99.90
22224;DHT22;11281;52.194;21.006;2023-10-13T19:59:55;15.10;99.90
22224;DHT22;11281;52.194;21.006;2023-10-13T20:03:57;15.10;99.90
22224;DHT22;11281;52.194;21.006;2023-10-13T20:07:59;15.10;99.90
22224;DHT22;11281;52.194;21.006;2023-10-13T20:12:03;15.20;99.90
22224;DHT22;11281;52.194;21.006;2023-10-13T20:16:06;15.20;99.90
22224;DHT22;11281;52.194;21.006;2023-10-13T20:20:11;15.20;99.90
22224;DHT22;11281;52.194;21.006;2023-10-13T20:24:17;15.00;99.90
22224;DHT22;11281;52.194;21.006;2023-10-13T20:28:19;14.90;99.90
22224;DHT22;11281;52.194;21.006;2023-10-13T20:32:23;15.10;99.90
22224;DHT22;11281;52.194;21.006;2023-10-13T20:36:25;15.10;99.90
22224;DHT22;11281;52.194;21.006;2023-10-13T20:40:27;15.00;99.90
22224;DHT22;11281;52.194;21.006;2023-10-13T20:44:29;14.90;99.90
22224;DHT22;11281;52.194;21.006;2023-10-13T20:48:32;15.00;99.90
22224;DHT22;11281;52.194;21.006;2023-10-13T20:52:34;15.10;99.90
22224;DHT22;11281;52.194;21.006;2023-10-13T20:56:38;15.10;99.90
22224;DHT22;11281;52.194;21.006;2023-10-13T21:00:40;15.10;99.90
22224;DHT22;11281;52.194;21.006;2023-10-13T21:04:44;15.10;99.90
22224;DHT22;11281;52.194;21.006;2023-10-13T21:08:47;15.20;99.90
22224;DHT22;11281;52.194;21.006;2023-10-13T21:12:52;15.30;99.90
22224;DHT22;11281;52.194;21.006;2023-10-13T21:16:53;15.60;99.90
22224;DHT22;11281;52.194;21.006;2023-10-13T21:21:09;15.60;99.90
22224;DHT22;11281;52.194;21.006;2023-10-13T21:25:13;15.60;99.90
22224;DHT22;11281;52.194;21.006;2023-10-13T21:29:23;15.70;99.90
22224;DHT22;11281;52.194;21.006;2023-10-13T21:33:25;15.70;99.90
22224;DHT22;11281;52.194;21.006;2023-10-13T21:37:27;16.00;99.90
22224;DHT22;11281;52.194;21.006;2023-10-13T21:41:29;16.10;99.90
22224;DHT22;11281;52.194;21.006;2023-10-13T21:45:31;16.00;99.90
22224;DHT22;11281;52.194;21.006;2023-10-13T21:49:32;16.20;99.90
22224;DHT22;11281;52.194;21.006;2023-10-13T21:53:34;16.30;99.90
22224;DHT22;11281;52.194;21.006;2023-10-13T21:57:37;16.40;99.90
22224;DHT22;11281;52.194;21.006;2023-10-13T22:01:38;16.30;99.90
22224;DHT22;11281;52.194;21.006;2023-10-13T22:05:45;16.30;99.90
22224;DHT22;11281;52.194;21.006;2023-10-13T22:09:47;16.40;99.90
22224;DHT22;11281;52.194;21.006;2023-10-13T22:13:49;16.40;99.90
22224;DHT22;11281;52.194;21.006;2023-10-13T22:17:51;16.40;99.90
22224;DHT22;11281;52.194;21.006;2023-10-13T22:21:53;16.30;99.90
22224;DHT22;11281;52.194;21.006;2023-10-13T22:25:55;16.40;99.90
22224;DHT22;11281;52.194;21.006;2023-10-13T22:29:57;16.40;99.90
22224;DHT22;11281;52.194;21.006;2023-10-13T22:33:59;16.30;99.90
22224;DHT22;11281;52.194;21.006;2023-10-13T22:38:02;16.20;99.90
22224;DHT22;11281;52.194;21.006;2023-10-13T22:42:08;16.00;99.90
22224;DHT22;11281;52.194;21.006;2023-10-13T22:46:13;16.00;99.90
22224;DHT22;11281;52.194;21.006;2023-10-13T22:50:16;15.90;99.90
22224;DHT22;11281;52.194;21.006;2023-10-13T22:54:22;15.90;99.90
22224;DHT22;11281;52.194;21.006;2023-10-13T22:58:30;15.90;99.90
22224;DHT22;11281;52.194;21.006;2023-10-13T23:02:32;16.00;99.90
22224;DHT22;11281;52.194;21.006;2023-10-13T23:06:34;16.00;99.90
22224;DHT22;11281;52.194;21.006;2023-10-13T23:10:40;15.90;99.90
22224;DHT22;11281;52.194;21.006;2023-10-13T23:14:48;15.80;99.90
22224;DHT22;11281;52.194;21.006;2023-10-13T23:18:53;15.70;99.90
22224;DHT22;11281;52.194;21.006;2023-10-13T23:22:56;15.60;99.90
22224;DHT22;11281;52.194;21.006;2023-10-13T23:26:58;15.60;99.90
22224;DHT22;11281;52.194;21.006;2023-10-13T23:31:00;15.60;99.90
22224;DHT22;11281;52.194;21.006;2023-10-13T23:35:01;15.50;99.90
22224;DHT22;11281;52.194;21.006;2023-10-13T23:39:03;15.50;99.90
22224;DHT22;11281;52.194;21.006;2023-10-13T23:43:12;15.40;99.90
22224;DHT22;11281;52.194;21.006;2023-10-13T23:47:21;15.40;99.90
22224;DHT22;11281;52.194;21.006;2023-10-13T23:51:28;15.30;99.90
22224;DHT22;11281;52.194;21.006;2023-10-13T23:55:30;15.20;99.90
22224;DHT22;11281;52.194;21.006;2023-10-13T23:59:33;15.10;99.90
